createdAt,value
2022-10-27T00:02:09.524Z,16.30
2022-10-27T00:04:20.224Z,17.40
2022-10-27T00:06:30.533Z,17.40
2022-10-27T00:08:41.088Z,15.90
2022-10-27T00:11:00.695Z,15.80
2022-10-27T00:13:12.607Z,12.50
2022-10-27T00:15:22.739Z,12.60
2022-10-27T00:17:36.693Z,13.80
2022-10-27T00:19:46.898Z,12.60
2022-10-27T00:21:57.117Z,10.40
2022-10-27T00:24:07.466Z,13.90
2022-10-27T00:26:20.654Z,12.70
2022-10-27T00:28:33.405Z,14.50
2022-10-27T00:30:43.273Z,13.10
2022-10-27T00:32:53.880Z,13.00
2022-10-27T00:35:04.253Z,11.60
2022-10-27T00:37:15.038Z,11.40
2022-10-27T00:39:25.695Z,11.00
2022-10-27T00:41:37.892Z,10.60
2022-10-27T00:43:47.819Z,11.90
2022-10-27T00:45:59.873Z,10.00
2022-10-27T00:48:10.566Z,7.00
2022-10-27T00:50:22.913Z,6.20
2022-10-27T00:52:37.531Z,7.40
2022-10-27T00:54:47.667Z,4.80
2022-10-27T00:56:59.890Z,3.50
2022-10-27T00:59:10.923Z,3.60
2022-10-27T01:01:21.279Z,2.70
2022-10-27T01:03:32.417Z,2.60
2022-10-27T01:05:45.337Z,5.60
2022-10-27T01:07:57.510Z,4.90
2022-10-27T01:10:08.510Z,6.40
2022-10-27T01:12:18.841Z,6.90
2022-10-27T01:14:29.777Z,6.30
2022-10-27T01:16:51.018Z,4.60
2022-10-27T01:19:10.661Z,3.90
2022-10-27T01:21:48.522Z,4.60
2022-10-27T01:24:21.505Z,2.20
2022-10-27T01:26:52.513Z,3.30
2022-10-27T01:29:41.052Z,3.50
2022-10-27T01:31:59.105Z,2.20
2022-10-27T01:34:14.556Z,2.30
2022-10-27T01:36:33.421Z,2.20
2022-10-27T01:38:48.422Z,1.80
2022-10-27T01:41:03.899Z,2.00
2022-10-27T01:43:17.618Z,1.80
2022-10-27T01:45:30.946Z,1.80
2022-10-27T01:47:41.370Z,1.70
2022-10-27T01:49:54.313Z,2.00
2022-10-27T01:52:10.961Z,1.90
2022-10-27T01:54:24.086Z,1.80
2022-10-27T01:56:52.701Z,2.10
2022-10-27T01:59:22.146Z,1.70
2022-10-27T02:01:44.712Z,2.20
2022-10-27T02:06:19.918Z,2.70
2022-10-27T02:08:37.442Z,1.60
2022-10-27T02:10:53.647Z,2.10
2022-10-27T02:13:05.909Z,2.70
2022-10-27T02:15:25.328Z,2.30
2022-10-27T02:17:40.437Z,2.60
2022-10-27T02:19:54.389Z,2.00
2022-10-27T02:22:07.400Z,1.40
2022-10-27T02:24:17.711Z,2.00
2022-10-27T02:26:33.827Z,2.10
2022-10-27T02:28:47.205Z,3.40
2022-10-27T02:31:00.463Z,2.10
2022-10-27T02:33:11.920Z,2.00
2022-10-27T02:35:22.505Z,1.50
2022-10-27T02:37:36.604Z,2.10
2022-10-27T02:39:47.485Z,1.90
2022-10-27T02:41:57.723Z,1.80
2022-10-27T02:44:08.091Z,3.00
2022-10-27T02:46:19.155Z,2.20
2022-10-27T02:48:29.070Z,2.20
2022-10-27T02:52:49.242Z,2.10
2022-10-27T02:54:59.439Z,2.60
2022-10-27T02:57:09.630Z,2.20
2022-10-27T02:59:19.959Z,2.40
2022-10-27T03:01:30.487Z,2.50
2022-10-27T03:03:40.627Z,2.10
2022-10-27T03:05:50.869Z,3.60
2022-10-27T03:08:01.210Z,2.80
2022-10-27T03:12:23.725Z,3.30
2022-10-27T03:14:33.578Z,2.80
2022-10-27T03:16:43.827Z,2.30
2022-10-27T03:18:54.291Z,2.40
2022-10-27T03:21:04.300Z,3.10
2022-10-27T03:23:14.485Z,4.20
2022-10-27T03:25:24.687Z,3.70
2022-10-27T03:27:35.874Z,3.70
2022-10-27T03:31:56.798Z,3.00
2022-10-27T03:34:06.894Z,2.60
2022-10-27T03:36:17.101Z,2.50
2022-10-27T03:38:27.443Z,2.70
2022-10-27T03:40:37.853Z,3.70
2022-10-27T03:42:48.206Z,2.70
2022-10-27T03:44:58.851Z,2.70
2022-10-27T03:47:08.923Z,3.10
2022-10-27T03:49:19.423Z,3.30
2022-10-27T03:51:29.674Z,1.90
2022-10-27T03:53:40.833Z,2.00
2022-10-27T03:55:51.775Z,1.90
2022-10-27T03:58:02.097Z,1.30
2022-10-27T04:00:17.500Z,2.00
2022-10-27T04:02:27.716Z,1.80
2022-10-27T04:04:37.739Z,1.70
2022-10-27T04:06:47.861Z,1.70
2022-10-27T04:08:57.951Z,2.40
2022-10-27T04:11:08.705Z,2.00
2022-10-27T04:13:18.799Z,1.60
2022-10-27T04:15:29.953Z,1.80
2022-10-27T04:17:40.082Z,1.80
2022-10-27T04:19:50.153Z,1.70
2022-10-27T04:22:00.885Z,1.60
2022-10-27T04:24:11.802Z,1.50
2022-10-27T04:26:21.754Z,1.60
2022-10-27T04:28:31.962Z,1.30
2022-10-27T04:30:42.251Z,1.40
2022-10-27T04:32:56.167Z,1.90
2022-10-27T04:35:06.350Z,1.60
2022-10-27T04:37:16.478Z,1.70
2022-10-27T04:39:26.717Z,2.10
2022-10-27T04:41:37.111Z,1.20
2022-10-27T04:46:05.639Z,1.50
2022-10-27T04:48:15.823Z,1.50
2022-10-27T04:50:26.111Z,1.60
2022-10-27T04:52:38.298Z,1.50
2022-10-27T04:54:50.860Z,2.00
2022-10-27T04:57:00.846Z,1.60
2022-10-27T04:59:11.501Z,1.50
2022-10-27T05:01:21.779Z,2.00
2022-10-27T05:03:31.969Z,1.80
2022-10-27T05:05:42.077Z,1.60
2022-10-27T05:07:57.854Z,2.00
2022-10-27T05:10:08.862Z,2.10
2022-10-27T05:12:18.842Z,2.70
2022-10-27T05:14:29.086Z,2.10
2022-10-27T05:16:39.310Z,2.70
2022-10-27T05:18:49.423Z,2.30
2022-10-27T05:20:59.703Z,5.00
2022-10-27T05:23:10.290Z,4.30
2022-10-27T05:25:21.008Z,4.00
2022-10-27T05:27:31.097Z,3.10
2022-10-27T05:29:41.041Z,3.50
2022-10-27T05:31:51.084Z,3.10
2022-10-27T05:34:01.212Z,2.80
2022-10-27T05:36:12.282Z,2.60
2022-10-27T05:38:22.321Z,2.30
2022-10-27T05:40:34.856Z,3.60
2022-10-27T05:44:52.905Z,3.00
2022-10-27T05:47:02.706Z,2.20
2022-10-27T05:49:12.956Z,2.00
2022-10-27T05:51:23.201Z,3.40
2022-10-27T05:53:33.778Z,3.80
2022-10-27T05:55:43.841Z,5.10
2022-10-27T05:58:04.266Z,8.50
2022-10-27T06:00:17.627Z,4.80
2022-10-27T06:02:30.329Z,3.40
2022-10-27T06:04:40.550Z,5.40
2022-10-27T06:06:50.677Z,4.00
2022-10-27T06:09:00.748Z,5.80
2022-10-27T06:11:11.167Z,4.30
2022-10-27T06:13:21.309Z,3.90
2022-10-27T06:15:31.977Z,3.90
2022-10-27T06:17:42.222Z,3.40
2022-10-27T06:19:52.235Z,3.40
2022-10-27T06:22:02.478Z,5.40
2022-10-27T06:24:14.483Z,4.70
2022-10-27T06:26:24.670Z,6.40
2022-10-27T06:28:34.620Z,4.70
2022-10-27T06:30:45.599Z,4.90
2022-10-27T06:32:57.102Z,8.50
2022-10-27T06:35:09.003Z,6.90
2022-10-27T06:37:19.544Z,9.00
2022-10-27T06:39:30.560Z,9.50
2022-10-27T06:41:41.162Z,8.50
2022-10-27T06:43:51.517Z,8.80
2022-10-27T06:46:02.084Z,5.60
2022-10-27T06:48:14.331Z,7.70
2022-10-27T06:50:26.979Z,5.10
2022-10-27T06:52:40.029Z,7.00
2022-10-27T06:54:54.317Z,10.50
2022-10-27T06:57:06.873Z,7.90
2022-10-27T06:59:18.097Z,6.90
2022-10-27T07:01:28.321Z,6.90
2022-10-27T07:03:38.515Z,4.60
2022-10-27T07:05:49.062Z,4.60
2022-10-27T07:07:59.418Z,5.10
2022-10-27T07:10:11.139Z,4.80
2022-10-27T07:12:21.105Z,3.10
2022-10-27T07:14:31.137Z,6.30
2022-10-27T07:16:41.398Z,6.60
2022-10-27T07:18:52.253Z,6.00
2022-10-27T07:21:02.169Z,7.60
2022-10-27T07:23:13.675Z,6.30
2022-10-27T07:25:24.018Z,4.00
2022-10-27T07:27:34.080Z,4.10
2022-10-27T07:29:45.008Z,5.20
2022-10-27T07:31:55.650Z,5.30
2022-10-27T07:34:07.031Z,4.60
2022-10-27T07:36:17.195Z,5.60
2022-10-27T07:38:27.190Z,5.00
2022-10-27T07:40:37.506Z,5.30
2022-10-27T07:42:49.423Z,6.70
2022-10-27T07:44:59.933Z,3.90
2022-10-27T07:47:09.877Z,5.30
2022-10-27T07:49:21.025Z,3.30
2022-10-27T07:51:31.980Z,4.50
2022-10-27T07:53:42.437Z,2.80
2022-10-27T07:55:54.122Z,3.10
2022-10-27T07:58:06.544Z,2.70
2022-10-27T08:02:26.594Z,3.50
2022-10-27T08:04:36.877Z,5.70
2022-10-27T08:06:46.932Z,6.50
2022-10-27T08:08:57.402Z,5.70
2022-10-27T08:11:07.752Z,5.70
2022-10-27T08:13:19.135Z,6.50
2022-10-27T08:15:30.162Z,3.60
2022-10-27T08:17:40.097Z,3.30
2022-10-27T08:19:50.398Z,4.20
2022-10-27T08:22:01.163Z,3.10
2022-10-27T08:24:12.188Z,4.50
2022-10-27T08:26:22.229Z,5.50
2022-10-27T08:28:32.337Z,4.00
2022-10-27T08:30:50.683Z,5.00
2022-10-27T08:33:04.983Z,3.60
2022-10-27T08:35:15.608Z,3.50
2022-10-27T08:37:25.955Z,2.80
2022-10-27T08:39:36.100Z,2.50
2022-10-27T08:41:53.556Z,2.60
2022-10-27T08:44:26.814Z,3.90
2022-10-27T08:46:44.387Z,2.80
2022-10-27T08:49:00.511Z,2.80
2022-10-27T08:51:16.377Z,3.10
2022-10-27T08:53:32.871Z,2.50
2022-10-27T08:55:55.148Z,3.70
2022-10-27T08:58:09.582Z,7.10
2022-10-27T09:00:20.324Z,4.60
2022-10-27T09:03:06.333Z,3.50
2022-10-27T09:05:43.983Z,3.50
2022-10-27T09:08:01.438Z,3.50
2022-10-27T09:10:22.160Z,3.20
2022-10-27T09:13:01.499Z,2.70
2022-10-27T09:15:41.564Z,2.80
2022-10-27T09:17:57.910Z,3.00
2022-10-27T09:20:16.502Z,2.00
2022-10-27T09:22:28.209Z,3.00
2022-10-27T09:24:41.945Z,2.90
2022-10-27T09:26:52.576Z,3.40
2022-10-27T09:29:06.344Z,4.10
2022-10-27T09:31:20.357Z,4.40
2022-10-27T09:33:34.503Z,6.10
2022-10-27T09:35:44.545Z,4.90
2022-10-27T09:37:57.053Z,6.60
2022-10-27T09:40:13.179Z,6.30
2022-10-27T09:42:23.729Z,4.20
2022-10-27T09:44:35.029Z,5.70
2022-10-27T09:46:46.942Z,7.10
2022-10-27T09:49:05.600Z,3.90
2022-10-27T09:51:22.672Z,4.00
2022-10-27T09:53:44.313Z,3.40
2022-10-27T09:55:55.954Z,3.50
2022-10-27T09:58:06.566Z,2.80
2022-10-27T10:00:31.602Z,2.80
2022-10-27T10:02:47.252Z,3.60
2022-10-27T10:04:59.498Z,4.50
2022-10-27T10:07:30.204Z,2.40
2022-10-27T10:09:41.411Z,3.50
2022-10-27T10:11:51.855Z,4.40
2022-10-27T10:14:04.483Z,4.50
2022-10-27T10:16:18.240Z,3.00
2022-10-27T10:18:31.606Z,5.40
2022-10-27T10:20:44.865Z,5.50
2022-10-27T10:22:56.346Z,4.30
2022-10-27T10:25:17.685Z,7.60
2022-10-27T10:27:33.205Z,5.90
2022-10-27T10:29:51.569Z,4.30
2022-10-27T10:32:20.742Z,5.40
2022-10-27T10:34:36.182Z,4.60
2022-10-27T10:36:50.728Z,7.00
2022-10-27T10:39:02.497Z,7.40
2022-10-27T10:41:17.299Z,7.40
2022-10-27T10:43:27.333Z,6.20
2022-10-27T10:45:41.084Z,5.80
2022-10-27T10:47:56.446Z,6.80
2022-10-27T10:50:13.603Z,7.10
2022-10-27T10:52:27.091Z,7.10
2022-10-27T10:54:40.334Z,5.10
2022-10-27T10:56:57.387Z,6.40
2022-10-27T10:59:15.740Z,5.50
2022-10-27T11:01:26.632Z,3.80
2022-10-27T11:03:44.026Z,5.70
2022-10-27T11:06:01.151Z,6.40
2022-10-27T11:08:21.664Z,5.00
2022-10-27T11:10:34.813Z,3.90
2022-10-27T11:12:48.406Z,3.70
2022-10-27T11:15:00.734Z,4.20
2022-10-27T11:17:11.387Z,3.90
2022-10-27T11:19:25.292Z,4.20
2022-10-27T11:21:40.844Z,4.60
2022-10-27T11:23:52.855Z,3.20
2022-10-27T11:26:05.139Z,2.40
2022-10-27T11:28:24.987Z,4.60
2022-10-27T11:30:38.793Z,4.00
2022-10-27T11:32:54.620Z,2.30
2022-10-27T11:35:13.801Z,3.50
2022-10-27T11:37:30.973Z,3.40
2022-10-27T11:39:50.788Z,4.00
2022-10-27T11:42:11.775Z,4.30
2022-10-27T11:44:34.732Z,2.70
2022-10-27T11:49:10.644Z,2.00
2022-10-27T11:51:26.596Z,1.90
2022-10-27T11:53:40.230Z,1.90
2022-10-27T11:56:10.258Z,1.90
2022-10-27T11:58:28.079Z,2.20
2022-10-27T12:00:47.016Z,2.50
2022-10-27T12:03:15.996Z,1.40
2022-10-27T12:05:31.750Z,1.70
2022-10-27T12:08:06.122Z,2.40
2022-10-27T12:10:27.611Z,1.40
2022-10-27T12:12:41.102Z,1.40
2022-10-27T12:14:57.685Z,1.30
2022-10-27T12:17:13.696Z,1.40
2022-10-27T12:19:30.253Z,1.40
2022-10-27T12:21:45.486Z,1.10
2022-10-27T12:24:03.108Z,1.40
2022-10-27T12:26:19.759Z,0.90
2022-10-27T12:28:31.232Z,1.40
2022-10-27T12:30:44.641Z,1.30
2022-10-27T12:33:00.777Z,1.10
2022-10-27T12:35:20.398Z,1.50
2022-10-27T12:37:41.104Z,1.10
2022-10-27T12:39:57.832Z,1.40
2022-10-27T12:42:17.997Z,0.90
2022-10-27T12:44:39.860Z,1.30
2022-10-27T12:47:05.450Z,1.20
2022-10-27T12:49:27.357Z,1.20
2022-10-27T12:51:48.408Z,1.10
2022-10-27T12:54:04.350Z,0.80
2022-10-27T12:56:27.071Z,0.80
2022-10-27T12:58:47.422Z,0.90
2022-10-27T13:01:08.271Z,0.80
2022-10-27T13:03:35.480Z,1.80
2022-10-27T13:06:09.310Z,0.90
2022-10-27T13:09:08.975Z,1.80
2022-10-27T13:11:37.515Z,1.40
2022-10-27T13:14:04.340Z,1.20
2022-10-27T13:16:24.977Z,0.90
2022-10-27T13:18:58.898Z,1.40
2022-10-27T13:21:17.130Z,1.20
2022-10-27T13:23:33.288Z,1.00
2022-10-27T13:25:48.311Z,0.90
2022-10-27T13:28:06.843Z,1.90
2022-10-27T13:30:23.503Z,1.10
2022-10-27T13:32:56.416Z,1.70
2022-10-27T13:35:33.207Z,1.70
2022-10-27T13:37:45.345Z,1.10
2022-10-27T13:39:55.559Z,1.00
2022-10-27T13:42:30.229Z,1.40
2022-10-27T13:44:41.603Z,1.00
2022-10-27T13:47:17.413Z,1.30
2022-10-27T13:49:57.881Z,1.20
2022-10-27T13:52:24.827Z,1.70
2022-10-27T13:54:55.671Z,1.10
2022-10-27T13:57:26.528Z,2.00
2022-10-27T13:59:39.316Z,1.30
2022-10-27T14:01:53.417Z,0.90
2022-10-27T14:04:25.320Z,1.20
2022-10-27T14:06:38.931Z,1.40
2022-10-27T14:08:54.851Z,1.30
2022-10-27T14:11:12.181Z,1.30
2022-10-27T14:13:26.445Z,1.80
2022-10-27T14:15:38.394Z,1.10
2022-10-27T14:17:49.816Z,1.30
2022-10-27T14:20:03.886Z,1.20
2022-10-27T14:22:30.957Z,1.30
2022-10-27T14:24:51.292Z,1.20
2022-10-27T14:27:06.062Z,1.50
2022-10-27T14:29:28.051Z,1.60
2022-10-27T14:31:38.589Z,1.30
2022-10-27T14:33:48.752Z,1.10
2022-10-27T14:36:17.933Z,2.50
2022-10-27T14:38:28.296Z,1.40
2022-10-27T14:40:43.481Z,1.80
2022-10-27T14:42:54.231Z,1.40
2022-10-27T14:45:07.450Z,1.40
2022-10-27T14:47:19.524Z,1.50
2022-10-27T14:49:35.091Z,1.40
2022-10-27T14:51:48.209Z,1.20
2022-10-27T14:53:59.594Z,0.90
2022-10-27T14:56:20.807Z,1.60
2022-10-27T14:58:31.012Z,1.20
2022-10-27T15:00:41.511Z,1.40
2022-10-27T15:02:52.379Z,1.30
2022-10-27T15:07:39.931Z,1.20
2022-10-27T15:09:55.019Z,1.60
2022-10-27T15:12:10.673Z,1.20
2022-10-27T15:14:24.160Z,1.30
2022-10-27T15:16:38.927Z,1.50
2022-10-27T15:18:52.851Z,1.10
2022-10-27T15:21:06.978Z,2.20
2022-10-27T15:23:21.318Z,2.00
2022-10-27T15:25:36.356Z,1.50
2022-10-27T15:27:50.340Z,1.60
2022-10-27T15:30:04.513Z,1.60
2022-10-27T15:32:30.678Z,0.90
2022-10-27T15:34:44.411Z,1.10
2022-10-27T15:37:16.340Z,1.10
2022-10-27T15:39:29.560Z,1.20
2022-10-27T15:41:50.184Z,1.20
2022-10-27T15:44:21.041Z,2.20
2022-10-27T15:46:39.619Z,1.80
2022-10-27T15:48:58.818Z,1.30
2022-10-27T15:51:15.805Z,0.90
2022-10-27T15:53:31.853Z,1.10
2022-10-27T15:55:47.067Z,1.30
2022-10-27T15:58:00.263Z,1.10
2022-10-27T16:00:26.404Z,1.20
2022-10-27T16:02:47.167Z,1.40
2022-10-27T16:05:01.521Z,0.80
2022-10-27T16:07:36.878Z,1.20
2022-10-27T16:09:51.972Z,0.90
2022-10-27T16:12:05.297Z,1.30
2022-10-27T16:14:21.666Z,1.10
2022-10-27T16:16:37.469Z,0.90
2022-10-27T16:18:50.975Z,0.90
2022-10-27T16:21:04.400Z,1.90
2022-10-27T16:23:19.437Z,1.10
2022-10-27T16:25:35.537Z,1.20
2022-10-27T16:27:49.224Z,1.20
2022-10-27T16:30:04.666Z,1.20
2022-10-27T16:32:19.159Z,1.50
2022-10-27T16:34:34.391Z,1.40
2022-10-27T16:36:47.807Z,2.80
2022-10-27T16:39:01.934Z,2.70
2022-10-27T16:41:19.557Z,1.50
2022-10-27T16:43:37.955Z,3.20
2022-10-27T16:45:51.350Z,1.50
2022-10-27T16:48:04.687Z,1.20
2022-10-27T16:50:18.780Z,2.00
2022-10-27T16:52:32.035Z,1.40
2022-10-27T16:54:46.944Z,2.10
2022-10-27T16:57:00.327Z,1.40
2022-10-27T16:59:14.788Z,1.00
2022-10-27T17:01:28.660Z,2.20
2022-10-27T17:03:42.729Z,0.70
2022-10-27T17:05:56.970Z,1.20
2022-10-27T17:08:11.105Z,1.30
2022-10-27T17:10:24.727Z,1.40
2022-10-27T17:12:38.149Z,1.20
2022-10-27T17:14:55.142Z,1.30
2022-10-27T17:17:08.416Z,3.20
2022-10-27T17:19:21.691Z,3.30
2022-10-27T17:21:36.454Z,3.00
2022-10-27T17:23:49.864Z,3.40
2022-10-27T17:26:09.306Z,2.40
2022-10-27T17:30:36.562Z,3.10
2022-10-27T17:32:50.097Z,4.20
2022-10-27T17:35:04.346Z,7.10
2022-10-27T17:37:19.529Z,6.40
2022-10-27T17:39:33.100Z,4.50
2022-10-27T17:41:46.457Z,3.70
2022-10-27T17:44:00.698Z,3.40
2022-10-27T17:46:15.924Z,5.60
2022-10-27T17:48:30.089Z,4.40
2022-10-27T17:50:43.281Z,3.20
2022-10-27T17:52:56.472Z,3.80
2022-10-27T17:55:11.546Z,3.60
2022-10-27T17:57:25.728Z,3.80
2022-10-27T17:59:38.945Z,3.40
2022-10-27T18:01:52.286Z,5.70
2022-10-27T18:04:09.998Z,3.70
2022-10-27T18:06:24.630Z,4.60
2022-10-27T18:08:37.926Z,5.20
2022-10-27T18:10:52.203Z,6.00
2022-10-27T18:13:06.755Z,5.50
2022-10-27T18:15:36.315Z,4.70
2022-10-27T18:17:52.245Z,4.20
2022-10-27T18:20:05.374Z,6.20
2022-10-27T18:22:18.563Z,6.10
2022-10-27T18:24:31.819Z,4.00
2022-10-27T18:26:46.972Z,2.60
2022-10-27T18:29:00.424Z,4.30
2022-10-27T18:31:17.091Z,5.50
2022-10-27T18:33:30.573Z,4.60
2022-10-27T18:35:44.864Z,6.20
2022-10-27T18:37:58.498Z,4.90
2022-10-27T18:40:14.731Z,4.50
2022-10-27T18:42:27.911Z,6.20
2022-10-27T18:44:41.114Z,5.30
2022-10-27T18:46:54.913Z,4.80
2022-10-27T18:49:15.620Z,5.30
2022-10-27T18:51:35.493Z,5.40
2022-10-27T18:53:49.456Z,4.70
2022-10-27T18:56:03.374Z,4.60
2022-10-27T18:58:17.059Z,4.10
2022-10-27T19:00:30.515Z,4.30
2022-10-27T19:02:43.966Z,4.30
2022-10-27T19:04:57.799Z,4.50
2022-10-27T19:07:11.644Z,6.90
2022-10-27T19:09:25.142Z,4.60
2022-10-27T19:11:40.819Z,4.40
2022-10-27T19:13:55.094Z,4.90
2022-10-27T19:16:09.370Z,4.00
2022-10-27T19:18:22.610Z,4.80
2022-10-27T19:20:36.115Z,4.00
2022-10-27T19:22:49.368Z,3.90
2022-10-27T19:25:03.607Z,4.90
2022-10-27T19:27:16.919Z,6.90
2022-10-27T19:29:30.052Z,5.60
2022-10-27T19:31:43.588Z,5.60
2022-10-27T19:33:57.364Z,5.20
2022-10-27T19:36:15.494Z,4.80
2022-10-27T19:38:28.808Z,5.10
2022-10-27T19:40:44.190Z,6.80
2022-10-27T19:42:57.449Z,7.00
2022-10-27T19:45:12.140Z,5.50
2022-10-27T19:49:44.465Z,6.50
2022-10-27T19:51:58.900Z,5.50
2022-10-27T19:54:15.830Z,4.70
2022-10-27T19:56:32.941Z,5.00
2022-10-27T19:58:47.554Z,4.60
2022-10-27T20:01:00.802Z,4.70
2022-10-27T20:03:14.028Z,3.90
2022-10-27T20:05:28.130Z,4.70
2022-10-27T20:07:41.603Z,5.20
2022-10-27T20:09:55.728Z,4.00
2022-10-27T20:12:09.059Z,5.50
2022-10-27T20:14:24.517Z,4.80
2022-10-27T20:16:41.894Z,4.80
2022-10-27T20:18:55.488Z,4.70
2022-10-27T20:21:10.677Z,5.20
2022-10-27T20:23:26.046Z,6.00
2022-10-27T20:25:40.380Z,6.90
2022-10-27T20:27:54.519Z,4.90
2022-10-27T20:30:08.336Z,4.40
2022-10-27T20:32:21.713Z,5.90
2022-10-27T20:34:39.412Z,3.90
2022-10-27T20:36:52.913Z,5.10
2022-10-27T20:39:07.255Z,5.40
2022-10-27T20:41:24.130Z,5.00
2022-10-27T20:43:38.720Z,6.30
2022-10-27T20:45:58.810Z,5.90
2022-10-27T20:48:13.081Z,5.10
2022-10-27T20:50:26.508Z,6.60
2022-10-27T20:54:58.927Z,5.40
2022-10-27T20:57:12.306Z,4.90
2022-10-27T20:59:26.706Z,6.20
2022-10-27T21:01:42.112Z,6.30
2022-10-27T21:03:57.099Z,5.70
2022-10-27T21:06:12.610Z,5.00
2022-10-27T21:08:26.307Z,5.00
2022-10-27T21:10:42.991Z,5.70
2022-10-27T21:12:56.262Z,5.60
2022-10-27T21:15:11.158Z,4.90
2022-10-27T21:17:25.024Z,5.90
2022-10-27T21:19:38.538Z,5.10
2022-10-27T21:21:51.958Z,5.40
2022-10-27T21:24:10.963Z,5.20
2022-10-27T21:26:28.177Z,4.90
2022-10-27T21:28:41.587Z,4.50
2022-10-27T21:30:55.170Z,5.00
2022-10-27T21:33:08.651Z,5.70
2022-10-27T21:35:22.317Z,4.60
2022-10-27T21:37:36.656Z,6.50
2022-10-27T21:39:50.003Z,4.00
2022-10-27T21:42:03.098Z,5.60
2022-10-27T21:44:17.249Z,6.30
2022-10-27T21:46:32.064Z,5.10
2022-10-27T21:48:45.316Z,4.20
2022-10-27T21:50:59.654Z,4.60
2022-10-27T21:53:12.869Z,5.10
2022-10-27T21:55:26.031Z,4.20
2022-10-27T21:57:39.148Z,3.70
2022-10-27T21:59:52.385Z,3.10
2022-10-27T22:02:05.620Z,3.90
2022-10-27T22:04:18.750Z,2.30
2022-10-27T22:06:34.930Z,2.20
2022-10-27T22:08:49.147Z,2.80
2022-10-27T22:11:09.686Z,2.70
2022-10-27T22:13:23.547Z,2.60
2022-10-27T22:15:37.066Z,3.60
2022-10-27T22:17:51.193Z,5.00
2022-10-27T22:20:04.766Z,4.60
2022-10-27T22:22:18.302Z,5.10
2022-10-27T22:24:31.648Z,7.20
2022-10-27T22:26:47.864Z,6.10
2022-10-27T22:29:02.505Z,5.00
2022-10-27T22:31:18.377Z,5.10
2022-10-27T22:33:32.629Z,5.20
2022-10-27T22:35:45.951Z,6.80
2022-10-27T22:37:59.363Z,6.60
2022-10-27T22:40:17.576Z,7.60
2022-10-27T22:42:30.820Z,6.20
2022-10-27T22:44:44.341Z,9.20
2022-10-27T22:46:57.575Z,8.50
2022-10-27T22:49:11.945Z,8.10
2022-10-27T22:51:26.997Z,7.20
2022-10-27T22:53:43.685Z,8.90
2022-10-27T22:55:57.779Z,7.90
2022-10-27T22:58:12.046Z,6.10
2022-10-27T23:00:25.614Z,6.90
2022-10-27T23:02:38.883Z,7.40
2022-10-27T23:04:52.066Z,9.80
2022-10-27T23:07:05.254Z,10.10
2022-10-27T23:09:21.041Z,10.50
2022-10-27T23:11:39.360Z,8.90
2022-10-27T23:13:52.525Z,10.10
2022-10-27T23:16:11.301Z,10.70
2022-10-27T23:18:24.691Z,8.90
2022-10-27T23:20:37.895Z,10.60
2022-10-27T23:22:51.405Z,10.20
2022-10-27T23:25:04.813Z,12.20
2022-10-27T23:27:18.109Z,12.30
2022-10-27T23:29:31.306Z,11.30
2022-10-27T23:31:44.814Z,9.30
2022-10-27T23:34:01.018Z,7.80
2022-10-27T23:36:17.259Z,9.50
2022-10-27T23:38:31.316Z,8.40
2022-10-27T23:40:52.367Z,6.70
2022-10-27T23:43:06.551Z,7.30
2022-10-27T23:45:19.954Z,7.50
2022-10-27T23:47:34.152Z,7.50
2022-10-27T23:49:47.308Z,7.90
2022-10-27T23:52:00.547Z,7.70
2022-10-27T23:54:14.289Z,7.30
2022-10-27T23:56:27.716Z,9.80
2022-10-27T23:58:42.428Z,9.90
